YPCC

Details ICAO YPCC (CCK)
Name Cocos Keeling Island
Region Australia
Timezone Unknown
Plans Departing 54
Arriving 70
Stats Elevation 10 ft / 3 m (AMSL)
Location -12.191300° 96.833700°
Runways 1
Magnetic Variation 1.827° W
Sunrise 2019-05-23 23:45:55 UTC / 2019-05-23 23:45:55 Local
Sunset 2019-05-24 11:15:51 UTC / 2019-05-24 11:15:51 Local
Advertisement - Login to hide

Runways

ID Width Length Bearing (true/mag) Surface Threshold Overrun Markings Lighting
15 148 ft / 45 m 8,039 ft / 2,450 m 149.38° / 151.21° ASPHALT 0 ft / 0 m 1,047 ft / 319 m APP EDGE THRESHOLD
33 148 ft / 45 m 8,039 ft / 2,450 m 329.38° / 331.20° ASPHALT 0 ft / 0 m 1,020 ft / 311 m APP EDGE THRESHOLD

Map

Weather


0- 5 10 15 20 25 30 35+ Temperature / °C

Clouds and Precipitation
Forecast for 2019-05-24 00:00 UTC. Updated 3 hours ago

Ground ~20,000 ft ~40,000 ft Winds

METAR

YPCC 240100Z 10011KT 9999 SCT022 SCT350 28/24 Q1013

TAF

TAF AMD YPCC 232235Z 2400/2424 10014KT 9999 -SHRA SCT022 INTER 2411/2424 3000 SHRA SCT010 BKN020

Frequencies

Unicom 118.10 MHz CTAF
Warning: Do not use this data for real-world aviation or navigation. No guarantee of current accuracy is given.